André Pacheco

Recruteur - Santa Cruz
3 Déc 2028
Dimanche
Processus

Personnalité

Adaptabilité (15) Ambition (1) Controverse (20) Loyauté (3) Pression (9) Professionnalisme (18) Sportivité (14) Tempérament (4)

Profil

Style d'entraînement Démocratique
Diplôme Continental B
Détermination 11
Gestion des joueurs 7
Motivation 7
Discipline 10
Satisfaction professionnelle
100%
Fatigue
0%
Rôle Recruteur
Salaire 21.5K p/s
Contrat 14.03.2029

Performance

Comportement Bon
Efficacité de l'entraînement
41%
Développement des joueurs
25%
Prévention des blessures
25%
Mise en place tactique
55%

Événements récents

A évalué un joueur maintenant
A participé à une réunion de recrutement maintenant
A recommandé une cible de transfert maintenant
A recommandé une cible de transfert maintenant
A recommandé une cible de transfert maintenant
A évalué un joueur maintenant
A évalué un joueur maintenant
A évalué un joueur 7j

Suivi en cours

152
Joueur Club Statut Capacité Confiance Observé Dernière observation Dernier vote
Geovane Atletico Goianiense Rapport prêt 100 / 96 86% 1 01.12.2028 -
Nicolás Retamar Ferro Carril Oeste Actif 117 / 118 40% 4 30.11.2028 -
Alex Oyowah Rivers United Actif 99 / 87 40% 2 30.11.2028 -
Enzo González Defensores Actif 112 / 99 40% 3 30.11.2028 -
Camilo Machado Madryn Actif 111 / 111 40% 2 29.11.2028 -
Walter Núñez Montevideo City Torque Actif 120 / 114 40% 1 29.11.2028 -
Agustín Rodríguez Juventud Actif 128 / 129 40% 3 27.11.2028 -
Marco Miori Alvarado Actif 110 / 112 40% 3 27.11.2028 -
Agustín Colazo Unión de Santa Fe Actif 121 / 118 40% 1 27.11.2028 -
Juan David Rueda Alianza Petrolera Actif 110 / 117 40% 3 26.11.2028 -
Matías Sosa Arsenal Actif 111 / 112 40% 2 26.11.2028 -
Mateo Bajamich Atlético Tucumán Actif 122 / 115 40% 1 26.11.2028 -
Luciano Cosentino Wanderers Actif 125 / 129 40% 3 24.11.2028 -
Samuel Anakwe Remo Stars Actif 106 / 85 40% 4 24.11.2028 -
Junior Paredes Trujillanos Actif 110 / 112 40% 1 24.11.2028 -
Alexander Díaz Deportivo Riestra Actif 126 / 128 40% 3 23.11.2028 -
Sergio Núñez Liverpool Montevideo Actif 112 / 102 40% 2 23.11.2028 -
Facundo Krüger Temperley Actif 116 / 118 40% 1 23.11.2028 -
Gianluca Pugliese Güemes Actif 111 / 104 40% 3 22.11.2028 -
Mauricio Márquez Caracas Actif 109 / 101 40% 2 22.11.2028 -
Agustín Gallo Tristán Suárez Actif 110 / 107 40% 3 22.11.2028 -
Emiliano Gómez Boston River Actif 122 / 126 40% 2 21.11.2028 -
Sebastián Cocimano Nueva Chicago Actif 111 / 117 40% 1 21.11.2028 -
Sebastián Marfort Racing Actif 105 / 101 40% 1 21.11.2028 -
Nicolás Medina Atlanta Actif 108 / 106 40% 1 19.11.2028 -
Santiago Sala Güemes Actif 113 / 106 40% 6 17.11.2028 -
Jerónimo Porto Lapegüe San Telmo Actif 112 / 105 40% 1 17.11.2028 -
Lucas Pedraza Defensores Unidos Actif 102 / 99 40% 1 17.11.2028 -
Ramiro Ruiz Rodríguez Atlético Tucumán Actif 124 / 129 40% 2 16.11.2028 -
Juan Peinipil Madryn Actif 107 / 105 40% 1 16.11.2028 -
José Barreto Quilmes Actif 113 / 112 40% 2 15.11.2028 -
Francisco Bonfiglio Boston River Actif 117 / 117 40% 1 10.11.2028 -
Favio Cabral Mitre Actif 122 / 123 40% 3 07.11.2028 -
Luca Franco Arsenal Actif 113 / 118 40% 1 07.11.2028 -
José Balza Deportivo Tachira Actif 112 / 105 40% 1 06.11.2028 -
Fabri Vitória Actif 125 / 126 40% 1 02.11.2028 -
Rafael Moreno Atletico Venezuela Actif 111 / 119 40% 1 02.11.2028 -
Timothy Zechariah Rivers United Actif 98 / 98 40% 2 30.10.2028 -
Maclyn Biokpo Jenewari Rivers United Actif 111 / 101 40% 1 25.10.2028 -
Daniel Barrea Godoy Cruz Actif 127 / 122 40% 1 25.10.2028 -
Rodrigo Auzmendi Banfield Actif 126 / 120 40% 1 23.10.2028 -
Nicolás Ferreira Wanderers Actif 125 / 117 40% 2 22.10.2028 -
Mauro Valiente Estudiantes Actif 119 / 117 40% 2 19.10.2028 -
Jonathan Farías Torpedo Kutaisi Actif 104 / 98 40% 2 18.10.2028 -
Agustín Morales Estudiantes Actif 117 / 120 40% 1 12.10.2028 -
Esteban Obregón Montevideo City Torque Actif 121 / 116 40% 3 11.10.2028 -
Carlos De Las Salas Aguilas Doradas Actif 115 / 121 40% 1 11.10.2028 -
Iñaki Larthirigoyen San Telmo Actif 124 / 126 40% 4 10.10.2028 -
Patricio Moyano Defensores Actif 122 / 124 40% 4 10.10.2028 -
Álvaro Meléndez Real Cartagena Actif 109 / 101 40% 2 10.10.2028 -
Brayan Palmezano Deportivo Tachira Actif 110 / 106 40% 1 09.10.2028 -
Franco Vedoya Central Norte Actif 117 / 108 40% 3 04.10.2028 -
Imran Oulad Omar Dinamo Batumi Actif 129 / 125 40% 5 04.10.2028 -
Giorgi Arabidze Torpedo Kutaisi Actif 120 / 106 40% 2 04.10.2028 -
John Córdoba Millonarios Actif 123 / 110 40% 2 03.10.2028 -
Enzo Hoyos Ferro Carril Oeste Actif 118 / 117 40% 1 03.10.2028 -
Carlos Cantillo Jaguares Actif 117 / 113 40% 1 04.09.2028 -
Kauan Toledo Botafogo Négociation 85 / 86 83% 1 10.07.2028 Approuver
Admir Bristrić Cambridge United Actif 109 / 106 40% 1 31.05.2028 -
Luke Molyneux Doncaster Rovers Actif 126 / 121 40% 1 31.05.2028 -
André Shinyashiki Plymouth Argyle Actif 114 / 102 40% 3 29.05.2028 -
Ben Wiles Milton Keynes Dons Actif 113 / 124 40% 1 29.05.2028 -
Caylan Vickers Burton Albion Actif 113 / 116 40% 1 27.05.2028 -
Marcus Browne AFC Wimbledon Actif 109 / 102 40% 1 27.05.2028 -
Charlie Whitaker Tranmere Rovers Actif 113 / 93 40% 1 27.05.2028 -
Camillo Tavernelli Arezzo Actif 128 / 131 40% 3 24.05.2028 -
Josh Nichols Oldham Athletic Actif 116 / 124 40% 1 24.05.2028 -
Darragh Burns Grimsby Town Actif 109 / 103 40% 1 24.05.2028 -
Kyreece Lisbie Colchester United Actif 111 / 127 40% 2 22.05.2028 -
Mathys Jean Marie Vis Pesaro Actif 95 / 105 40% 1 22.05.2028 -
Lucas Fernandes Bolton Wanderers Actif 125 / 125 40% 4 20.05.2028 -
Rúben Rodrigues Bolton Wanderers Actif 121 / 122 40% 1 20.05.2028 -
Ethan Erhahon Cheltenham Town Actif 120 / 127 40% 1 20.05.2028 -
Joe Powell Gillingham Actif 112 / 123 40% 2 19.05.2028 -
Bernard Sulemana Ashanti Gold Actif 114 / 109 40% 1 14.05.2028 -
Iván Pomba Sheffield Wednesday Actif 118 / 118 40% 1 14.05.2028 -
Stephen Humphrys Bradford City Actif 111 / 103 40% 2 04.05.2028 -
Benicio Baker-Boaitey Mansfield Town Actif 110 / 118 40% 1 02.05.2028 -
Mohamadou Kanté Crawley Town Actif 117 / 120 40% 1 02.05.2028 -
Joseph Hungbo Wigan Athletic Actif 114 / 122 40% 1 29.04.2028 -
Kane Wilson Milton Keynes Dons Actif 124 / 122 40% 1 29.04.2028 -
George Hall Port Vale Actif 126 / 111 40% 2 18.04.2028 -
Tobías Ostchega America Mineiro Actif 124 / 117 40% 3 15.04.2028 -
Harry Anderson Bristol Rovers Actif 112 / 96 40% 2 15.04.2028 -
Daniel Banjaqui Benfica Actif 126 / 116 40% 2 11.04.2028 -
Hakim Sulemana Ashanti Gold Actif 106 / 115 40% 2 11.04.2028 -
Víctor Guzmán Sporting CP Actif 97 / 102 40% 2 09.04.2028 -
Aaron Collins Milton Keynes Dons Actif 116 / 111 40% 5 08.04.2028 -
Mohammed Essien Hasaacas Actif 111 / 109 40% 1 08.04.2028 -
João Caiado Pacos de Ferreira Actif 122 / 101 40% 3 05.04.2028 -
Fernando Ceará Actif 123 / 111 40% 1 02.04.2028 -
Martim Cunha Porto Actif 111 / 123 40% 1 31.03.2028 -
Adam Phillips Northampton Town Actif 123 / 123 40% 1 31.03.2028 -
Kahiser Lenis Ceará Actif 122 / 116 40% 1 21.03.2028 -
Matheusinho Atletico Goianiense Actif 109 / 108 40% 2 16.03.2028 -
Lautaro Calderón Asante Kotoko Actif 107 / 96 40% 1 14.03.2028 -
Zé Carlos Gil Vicente Actif 120 / 139 40% 1 13.03.2028 -
Armando Dobra Chesterfield Actif 107 / 126 40% 1 13.03.2028 -
Matheus Vargas Paysandu Actif 114 / 114 40% 2 11.03.2028 -
Vinicius Zanocelo Ceará Actif 127 / 132 40% 1 10.03.2028 -
Matheus Araújo Ceará Actif 122 / 125 40% 1 07.03.2028 -
Samuel Justo Sporting CP Actif 119 / 135 40% 2 04.03.2028 -
Baralhas Vitória Actif 124 / 135 40% 1 04.03.2028 -
André Miranda Porto Actif 109 / 113 40% 2 29.02.2028 -
Sonny Carey Charlton Athletic Actif 124 / 119 40% 1 29.02.2028 -
Bernardo Lima Porto Actif 104 / 120 40% 1 22.02.2028 -
Jack Harrison New England Revolution Actif 138 / 143 40% 2 21.02.2028 -
Neto Moura Mirassol Actif 124 / 119 40% 1 14.02.2028 -
Simen Bolkan Nordli Rosenborg Actif 127 / 117 40% 1 14.02.2028 -
Alejo Cruz Juventud Actif 126 / 128 40% 3 09.02.2028 -
Federico Bicoro Lillestrom Actif 108 / 109 40% 1 09.02.2028 -
Gonzalo Asis Almagro Actif 109 / 119 40% 1 30.11.2027 -
Matías Viguet Maipú Actif 113 / 118 40% 1 30.11.2027 -
Bruno Leyes Godoy Cruz Actif 126 / 123 40% 1 29.11.2027 -
Daniel Karlsbakk Sarpsborg 08 Actif 136 / 129 40% 1 29.11.2027 -
Oscar Garrido Mitre Actif 117 / 114 40% 1 25.11.2027 -
Jonathan Bamba Chicago Fire Actif 143 / 131 40% 4 22.11.2027 -
Antonio Galeano Remo Stars Actif 124 / 113 40% 3 21.11.2027 -
Rodrigo González Mitre Actif 122 / 109 40% 4 19.11.2027 -
Brian Farioli Estudiantes Actif 120 / 114 40% 1 19.11.2027 -
Fernando Bersano Madryn Actif 121 / 117 40% 1 19.11.2027 -
Santiago Rodríguez Gimnasia y Esgrima Actif 118 / 121 40% 1 12.11.2027 -
Ryan Gauld Vancouver Whitecaps Actif 131 / 136 40% 4 10.11.2027 -
Tomás Ferreyra Defensores Unidos Actif 106 / 113 40% 1 10.11.2027 -
Pep Biel Charlotte Football Club Actif 125 / 117 40% 2 09.11.2027 -
Johan Campaña Patriotas Actif 108 / 105 40% 5 08.11.2027 -
Martín Campos Ferro Carril Oeste Actif 113 / 121 40% 3 03.11.2027 -
Alejo Dramisino Atlanta Actif 125 / 126 40% 1 02.11.2027 -
Sebastián Jaurena San Martín SJ Actif 117 / 123 40% 2 29.10.2027 -
Manuel Mónaco Sarmiento Actif 125 / 117 40% 3 28.10.2027 -
Enzo Martínez Almagro Actif 112 / 111 40% 1 28.10.2027 -
Horacio Tijanovich Central Córdoba SdE Actif 113 / 108 40% 1 25.10.2027 -
Augusto Berrondo Tristán Suárez Actif 110 / 117 40% 1 19.10.2027 -
Paul Samson Plateau United Actif 99 / 100 40% 3 17.10.2027 -
Gastón Moreyra Almirante Brown Actif 111 / 112 40% 1 01.10.2027 -
Matías Rosales Sarmiento Actif 111 / 119 40% 1 28.09.2027 -
Diego Gaitán Maipú Actif 115 / 109 40% 1 25.09.2027 -
Federico Versaci Talleres Actif 113 / 110 40% 2 23.09.2027 -
Enzo Trinidad Colegiales Actif 115 / 109 40% 1 20.09.2027 -
Telasco Segovia Inter Miami CF Actif 130 / 129 40% 1 07.09.2027 -
Agustín Alaniz Rentistas Actif 122 / 107 40% 1 06.09.2027 -
João Dalla Corte Internacional Actif 101 / 96 76% 1 21.06.2027 Approuver
Da Mata Flamengo Actif 88 / 91 76% 1 01.06.2027 Approuver
Xavi Sintes Estoril Praia Actif 114 / 107 40% 1 12.08.2026 -
Miguel Nóbrega Vitoria Guimaraes Actif 108 / 117 40% 1 12.08.2026 -
Noah Madsen Maritimo Actif 101 / 100 40% 1 12.08.2026 -
Abdu Conté Casa Pia Actif 121 / 126 40% 1 10.08.2026 -
Mathias De Amorim Famalicao Actif 135 / 139 40% 2 09.08.2026 -
Ulisses Nacional Actif 112 / 119 40% 1 09.08.2026 -
Denis Huseinbašić Braga Actif 130 / 117 40% 1 06.08.2026 -
Weverson Gil Vicente Actif 126 / 120 40% 1 06.08.2026 -
Tom van de Looi Famalicao Actif 123 / 124 40% 1 02.08.2026 -